Time;durP1;ratioP1;P1;durP2;ratioP2;P2;SDS_P1;SDS_P2;PMS_P1;PMS_P2;Temp;Humidity;BMP_temperature;BMP_pressure;BME280_temperature;BME280_humidity;BME280_pressure;Samples;Min_cycle;Max_cycle;Signal;HPM_P1;HPM_P2
2023/08/25 00:03:02;;;;;;;3.92;3.60;;;;;;;21.65;94.25;100736.00;6310745;28;20238;-70
2023/08/25 00:06:23;;;;;;;6.20;4.30;;;;;;;21.57;95.32;100728.78;6308070;28;20226;-68
2023/08/25 00:09:46;;;;;;;3.42;3.13;;;;;;;21.49;96.88;100729.88;6305710;28;20226;-70
2023/08/25 00:13:06;;;;;;;5.57;4.40;;;;;;;21.40;97.42;100720.13;6312247;28;20238;-69
2023/08/25 00:16:28;;;;;;;4.47;4.07;;;;;;;21.66;97.65;100732.19;6316367;28;20324;-71
2023/08/25 00:19:49;;;;;;;3.90;3.58;;;;;;;21.79;97.25;100730.28;6299550;28;20225;-70
2023/08/25 00:23:10;;;;;;;4.82;4.32;;;;;;;21.61;97.06;100730.06;6297973;28;20230;-70
2023/08/25 00:26:33;;;;;;;4.40;4.10;;;;;;;21.54;97.68;100721.00;6314103;28;20237;-70
2023/08/25 00:29:53;;;;;;;5.95;4.50;;;;;;;21.48;97.66;100721.84;6291301;28;20712;-71
2023/08/25 00:33:14;;;;;;;5.10;4.45;;;;;;;21.43;98.34;100721.63;6315842;28;20508;-70
2023/08/25 00:36:36;;;;;;;7.03;3.63;;;;;;;21.68;98.18;100719.94;6292629;28;20241;-70
2023/08/25 00:39:57;;;;;;;4.90;3.97;;;;;;;21.92;97.24;100726.72;6310768;28;20234;-69
2023/08/25 00:43:19;;;;;;;4.07;3.78;;;;;;;21.96;97.05;100715.09;6286537;28;20241;-70
2023/08/25 00:46:40;;;;;;;9.05;4.35;;;;;;;22.15;96.04;100716.94;6290341;28;20238;-69
2023/08/25 00:50:04;;;;;;;5.25;4.75;;;;;;;22.01;95.72;100712.53;6295727;27;20257;-70
2023/08/25 00:53:25;;;;;;;5.53;5.05;;;;;;;21.97;96.03;100705.78;6306731;27;20840;-69
2023/08/25 00:56:48;;;;;;;5.13;4.70;;;;;;;21.94;95.82;100713.63;6301978;27;20242;-71
2023/08/25 01:00:12;;;;;;;5.90;4.32;;;;;;;21.88;96.60;100707.06;6322219;27;20244;-70
2023/08/25 01:03:34;;;;;;;7.75;4.82;;;;;;;21.80;96.54;100712.75;6306043;27;20263;-69
2023/08/25 01:06:55;;;;;;;8.88;4.80;;;;;;;21.88;96.05;100696.06;6295853;28;20313;-71
2023/08/25 01:10:16;;;;;;;4.78;4.28;;;;;;;21.80;96.40;100699.00;6304068;27;20320;-71
2023/08/25 01:13:48;;;;;;;4.18;3.65;;;;;;;21.89;96.34;100694.19;6314752;27;20681;-71
2023/08/25 01:17:18;;;;;;;4.43;4.03;;;;;;;22.00;95.71;100691.66;6303302;27;20233;-70
2023/08/25 01:20:40;;;;;;;5.57;5.00;;;;;;;22.19;95.09;100684.41;6310508;27;20324;-70
2023/08/25 01:24:11;;;;;;;4.88;4.47;;;;;;;22.14;94.56;100678.69;6297164;27;20647;-70
2023/08/25 01:27:34;;;;;;;5.60;4.82;;;;;;;22.34;94.17;100684.13;6309306;27;20222;-71
2023/08/25 01:30:56;;;;;;;6.40;4.38;;;;;;;22.32;93.66;100689.00;6314862;27;20238;-70
2023/08/25 01:34:19;;;;;;;4.43;4.07;;;;;;;22.36;93.51;100698.50;6312389;27;20233;-71
2023/08/25 01:37:47;;;;;;;5.47;4.97;;;;;;;22.09;93.77;100698.56;6288977;27;20238;-70
2023/08/25 01:41:12;;;;;;;5.40;4.95;;;;;;;22.09;94.26;100701.31;6318283;27;20784;-70
2023/08/25 01:44:39;;;;;;;6.65;5.65;;;;;;;22.05;93.97;100699.25;6304309;27;20505;-69
2023/08/25 01:48:01;;;;;;;6.10;5.57;;;;;;;22.12;93.84;100703.66;6310364;27;20225;-70
2023/08/25 01:51:22;;;;;;;9.15;5.30;;;;;;;22.19;93.90;100692.66;6319907;27;20258;-70
2023/08/25 01:54:42;;;;;;;8.20;7.40;;;;;;;;;;6315342;27;20250;-70
2023/08/25 01:58:03;;;;;;;4.85;4.30;;;;;;;22.41;93.20;100690.44;6316507;27;20237;-71
2023/08/25 02:01:27;;;;;;;7.78;7.03;;;;;;;22.29;93.00;100690.28;6300714;28;20232;-70
2023/08/25 02:04:47;;;;;;;7.63;6.85;;;;;;;22.24;92.95;100692.81;6303364;27;20229;-70
2023/08/25 02:08:08;;;;;;;9.60;8.68;;;;;;;;;;6283482;27;20233;-70
2023/08/25 02:11:30;;;;;;;8.90;7.72;;;;;;;22.21;93.16;100688.63;6315842;27;20233;-70
2023/08/25 02:14:51;;;;;;;11.73;9.45;;;;;;;22.10;93.74;100688.44;6288492;28;20233;-70
2023/08/25 02:18:14;;;;;;;9.15;8.10;;;;;;;22.07;94.08;100692.44;6293854;27;20234;-68
2023/08/25 02:21:35;;;;;;;11.65;7.90;;;;;;;22.04;94.75;100686.56;6286937;27;20234;-69
2023/08/25 02:24:56;;;;;;;9.15;7.68;;;;;;;22.28;94.58;100678.44;6291820;27;20229;-70
2023/08/25 02:28:17;;;;;;;9.40;8.00;;;;;;;22.15;93.95;100681.22;6292649;28;20259;-70
2023/08/25 02:31:38;;;;;;;7.93;7.03;;;;;;;22.03;94.96;100685.69;6296005;27;20233;-70
2023/08/25 02:35:00;;;;;;;10.15;8.85;;;;;;;22.00;95.07;100677.91;6312616;27;20229;-70
2023/08/25 02:38:21;;;;;;;7.75;5.88;;;;;;;22.23;95.00;100678.25;6298206;27;20581;-70
2023/08/25 02:41:42;;;;;;;8.23;7.07;;;;;;;22.17;94.28;100679.09;6293723;27;20222;-70
2023/08/25 02:45:05;;;;;;;9.80;8.20;;;;;;;22.20;94.62;100675.09;6283534;28;21444;-69
2023/08/25 02:48:26;;;;;;;8.80;7.45;;;;;;;22.06;94.19;100667.97;6285594;27;20803;-70
2023/08/25 02:51:48;;;;;;;8.68;7.80;;;;;;;22.05;94.36;100661.63;6307194;27;20510;-69
2023/08/25 02:55:11;;;;;;;8.70;7.90;;;;;;;22.36;93.59;100669.13;6310894;28;20233;-69
2023/08/25 02:58:32;;;;;;;9.38;8.13;;;;;;;22.25;93.53;100654.16;6302678;27;20562;-69
2023/08/25 03:01:54;;;;;;;14.55;10.63;;;;;;;21.97;94.41;100656.38;6300355;27;20229;-70
2023/08/25 03:05:15;;;;;;;8.23;7.53;;;;;;;21.70;95.44;100653.84;6286657;27;20249;-70
2023/08/25 03:08:37;;;;;;;10.70;9.70;;;;;;;21.55;96.71;100647.78;6306719;27;20230;-68
2023/08/25 03:11:58;;;;;;;11.05;8.80;;;;;;;21.57;97.08;100648.41;6299412;28;20225;-68
2023/08/25 03:15:19;;;;;;;9.68;7.47;;;;;;;21.83;97.51;100654.72;6285768;28;20229;-69
2023/08/25 03:18:41;;;;;;;9.48;8.30;;;;;;;21.66;97.63;100650.69;6279283;28;20316;-70
2023/08/25 03:22:01;;;;;;;10.95;9.85;;;;;;;21.58;97.30;100656.41;6294722;27;20237;-69
2023/08/25 03:25:27;;;;;;;9.52;8.63;;;;;;;21.65;97.65;100657.25;6294657;27;20226;-70
2023/08/25 03:28:48;;;;;;;13.40;9.63;;;;;;;21.71;97.57;100636.34;6306888;27;20229;-69
2023/08/25 03:32:09;;;;;;;10.75;8.95;;;;;;;21.75;97.40;100635.72;6308223;27;20723;-69
2023/08/25 03:35:33;;;;;;;11.93;10.15;;;;;;;21.62;97.65;100643.94;6281835;27;20263;-69
2023/08/25 03:38:54;;;;;;;11.02;9.88;;;;;;;21.53;98.10;100634.25;6307193;27;20606;-70
2023/08/25 03:42:17;;;;;;;13.48;10.20;;;;;;;21.32;99.01;100637.22;6292718;28;20886;-69
2023/08/25 03:45:37;;;;;;;12.25;10.55;;;;;;;21.56;98.83;100625.59;6301998;28;20230;-70
2023/08/25 03:48:58;;;;;;;9.50;8.35;;;;;;;21.75;98.97;100632.09;6287555;28;20639;-69
2023/08/25 03:52:20;;;;;;;18.13;10.27;;;;;;;21.57;98.83;100635.50;6285586;27;20233;-69
2023/08/25 03:55:41;;;;;;;13.57;11.25;;;;;;;21.38;98.90;100637.22;6280453;28;20233;-70
2023/08/25 03:59:03;;;;;;;11.40;9.45;;;;;;;21.41;99.83;100644.19;6283708;28;21717;-69
2023/08/25 04:02:23;;;;;;;12.98;10.35;;;;;;;21.32;100.00;100643.56;6312368;28;20233;-69
2023/08/25 04:05:45;;;;;;;13.60;11.63;;;;;;;21.29;100.00;100634.91;6311919;28;20263;-69
2023/08/25 04:09:07;;;;;;;11.77;10.57;;;;;;;21.17;100.00;100640.16;6315006;28;20312;-69
2023/08/25 04:12:28;;;;;;;10.90;9.90;;;;;;;21.42;100.00;100637.66;6303299;28;20316;-69
2023/08/25 04:15:56;;;;;;;12.05;10.93;;;;;;;21.20;100.00;100639.75;6313678;28;20234;-69
2023/08/25 04:19:21;;;;;;;11.65;10.55;;;;;;;21.19;100.00;100642.72;6280058;28;20539;-70
2023/08/25 04:22:42;;;;;;;15.07;12.00;;;;;;;21.16;100.00;100635.75;6306058;28;20701;-70
2023/08/25 04:26:02;;;;;;;14.40;12.88;;;;;;;21.20;100.00;100631.53;6314783;27;20233;-70
2023/08/25 04:29:24;;;;;;;12.93;11.60;;;;;;;21.12;100.00;100633.63;6279718;28;20230;-69
2023/08/25 04:32:46;;;;;;;11.25;10.13;;;;;;;21.20;100.00;100639.75;6308325;27;20228;-70
2023/08/25 04:36:07;;;;;;;10.77;9.77;;;;;;;21.41;100.00;100635.97;6294509;27;20256;-68
2023/08/25 04:39:29;;;;;;;13.50;11.30;;;;;;;21.27;100.00;100646.09;6273605;27;20329;-69
2023/08/25 04:42:50;;;;;;;13.50;11.90;;;;;;;21.21;100.00;100630.50;6287546;27;20225;-69
2023/08/25 04:46:12;;;;;;;11.73;10.70;;;;;;;21.38;100.00;100636.41;6316022;27;20242;-70
2023/08/25 04:49:35;;;;;;;13.35;12.02;;;;;;;21.52;100.00;100642.69;6281771;28;20221;-69
2023/08/25 04:52:56;;;;;;;12.52;11.40;;;;;;;21.26;100.00;100644.41;6303178;27;20238;-69
2023/08/25 04:56:17;;;;;;;14.85;13.13;;;;;;;21.21;100.00;100643.34;6320825;27;20226;-70
2023/08/25 04:59:38;;;;;;;12.85;11.27;;;;;;;21.25;100.00;100640.00;6284444;27;21160;-69
2023/08/25 05:03:00;;;;;;;14.65;13.25;;;;;;;21.22;100.00;100642.28;6284492;28;20241;-69
2023/08/25 05:06:23;;;;;;;13.85;11.95;;;;;;;21.15;100.00;100646.94;6296612;27;20233;-67
2023/08/25 05:09:44;;;;;;;13.20;10.95;;;;;;;21.25;100.00;100634.50;6286054;27;20237;-69
2023/08/25 05:13:06;;;;;;;13.43;11.88;;;;;;;21.18;100.00;100635.53;6290577;27;20231;-69
2023/08/25 05:16:27;;;;;;;14.05;10.00;;;;;;;21.48;100.00;100647.78;6290956;27;21356;-72
2023/08/25 05:19:57;;;;;;;12.63;11.30;;;;;;;21.83;100.00;100653.88;6308499;27;20229;-71
2023/08/25 05:23:19;;;;;;;14.07;11.82;;;;;;;21.76;99.71;100659.34;6282499;27;20242;-70
2023/08/25 05:26:40;;;;;;;16.83;13.30;;;;;;;21.33;99.96;100649.88;6288486;27;20808;-70
2023/08/25 05:30:01;;;;;;;14.13;12.70;;;;;;;21.41;100.00;100649.66;6290238;27;20230;-70
2023/08/25 05:33:22;;;;;;;15.88;12.73;;;;;;;21.59;100.00;100652.59;6291474;27;21138;-71
2023/08/25 05:36:59;;;;;;;12.90;11.70;;;;;;;21.83;99.59;100653.88;6300519;27;20238;-71
2023/08/25 05:40:21;;;;;;;13.82;12.43;;;;;;;21.78;98.46;100653.66;6297763;28;20989;-70
2023/08/25 05:43:43;;;;;;;17.65;13.20;;;;;;;21.84;98.31;100655.56;6277334;28;20233;-71
2023/08/25 05:47:04;;;;;;;14.98;13.27;;;;;;;21.81;98.30;100654.06;6301997;27;20230;-72
2023/08/25 05:50:25;;;;;;;9.60;8.70;;;;;;;22.18;98.16;100645.09;6301057;27;20225;-71
2023/08/25 05:53:45;;;;;;;12.90;11.68;;;;;;;22.14;97.21;100651.25;6282066;27;20245;-69
2023/08/25 05:57:08;;;;;;;15.10;11.93;;;;;;;22.07;97.25;100648.50;6297717;27;20230;-70
2023/08/25 06:00:29;;;;;;;16.77;13.32;;;;;;;22.14;96.95;100649.34;6315523;27;20233;-70
2023/08/25 06:03:52;;;;;;;20.02;15.60;;;;;;;22.11;96.31;100657.19;6313688;27;20316;-70
2023/08/25 06:07:13;;;;;;;18.05;16.15;;;;;;;21.82;97.25;100660.44;6320809;27;20229;-72
2023/08/25 06:10:35;;;;;;;17.92;16.02;;;;;;;22.21;97.50;100657.56;6307094;27;20230;-72
2023/08/25 06:13:58;;;;;;;17.52;14.95;;;;;;;22.37;96.60;100658.97;6317279;27;20237;-73
2023/08/25 06:17:18;;;;;;;11.48;10.40;;;;;;;22.53;96.06;100662.06;6315719;27;20233;-71
2023/08/25 06:20:39;;;;;;;19.40;17.40;;;;;;;22.14;95.70;100659.47;6327556;27;20229;-70
2023/08/25 06:24:01;;;;;;;21.70;17.80;;;;;;;22.50;95.28;100659.75;6328341;27;20226;-72
2023/08/25 06:27:22;;;;;;;16.63;14.48;;;;;;;22.67;95.15;100658.22;6311028;27;20233;-73
2023/08/25 06:30:44;;;;;;;20.13;16.42;;;;;;;22.65;94.18;100656.75;6294911;27;20229;-73
2023/08/25 06:34:05;;;;;;;17.55;15.52;;;;;;;22.59;93.74;100657.63;6293599;27;20241;-74
2023/08/25 06:37:26;;;;;;;16.20;14.35;;;;;;;23.01;92.87;100656.94;6318308;27;20261;-76
2023/08/25 06:40:47;;;;;;;22.35;18.75;;;;;;;23.05;92.42;100652.69;6316611;27;20233;-72
2023/08/25 06:44:08;;;;;;;21.58;19.13;;;;;;;22.98;90.83;100657.38;6309251;28;20253;-71
2023/08/25 06:47:30;;;;;;;15.13;13.73;;;;;;;22.99;91.83;100659.91;6308836;27;20226;-73
2023/08/25 06:50:51;;;;;;;17.67;15.38;;;;;;;22.90;91.50;100666.75;6305435;28;20218;-72
2023/08/25 06:54:12;;;;;;;15.35;13.85;;;;;;;22.74;91.58;100666.41;6298004;27;20234;-71
2023/08/25 06:57:34;;;;;;;15.23;13.63;;;;;;;23.11;91.25;100667.47;6313255;27;20230;-73
2023/08/25 07:00:55;;;;;;;15.77;14.23;;;;;;;22.95;90.28;100671.56;6311930;27;20582;-72
2023/08/25 07:04:19;;;;;;;13.10;11.80;;;;;;;22.87;91.40;100667.19;6280681;27;20292;-73
2023/08/25 07:07:42;;;;;;;15.15;13.60;;;;;;;22.65;92.09;100667.75;6312656;27;20233;-72
2023/08/25 07:11:04;;;;;;;12.20;10.90;;;;;;;22.89;91.82;100678.81;6318888;27;20233;-74
2023/08/25 07:14:29;;;;;;;13.65;12.32;;;;;;;22.90;91.61;100677.75;6283236;28;20238;-71
2023/08/25 07:17:49;;;;;;;12.60;11.40;;;;;;;22.80;91.34;100679.31;6305930;27;20238;-72
2023/08/25 07:21:12;;;;;;;11.85;10.73;;;;;;;22.97;90.83;100681.28;6315712;28;20771;-71
2023/08/25 07:24:32;;;;;;;12.32;10.60;;;;;;;22.57;91.28;100688.03;6294135;27;20756;-71
2023/08/25 07:27:53;;;;;;;11.88;10.63;;;;;;;22.67;91.59;100690.38;6315489;27;20258;-71
2023/08/25 07:31:14;;;;;;;10.43;9.30;;;;;;;22.57;92.26;100698.22;6314845;27;20230;-71
2023/08/25 07:34:36;;;;;;;11.68;10.65;;;;;;;22.58;92.24;100699.88;6301925;28;21465;-70
2023/08/25 07:37:58;;;;;;;12.05;10.88;;;;;;;22.60;91.77;100703.28;6313171;27;20229;-71
2023/08/25 07:41:38;;;;;;;11.60;10.40;;;;;;;22.66;91.80;100696.91;6306848;27;20234;-75
2023/08/25 07:44:59;;;;;;;12.50;10.95;;;;;;;22.46;92.28;100704.38;6238138;28;20256;-73
2023/08/25 07:48:20;;;;;;;14.68;12.05;;;;;;;22.47;92.33;100693.16;6297056;27;20241;-71
2023/08/25 07:51:41;;;;;;;13.38;11.93;;;;;;;21.95;94.01;100694.19;6313173;27;20247;-69
2023/08/25 07:55:06;;;;;;;17.80;14.23;;;;;;;21.98;94.66;100695.66;6296658;28;20331;-71
2023/08/25 07:58:27;;;;;;;15.40;13.88;;;;;;;22.13;94.99;100694.31;6279928;28;20263;-69
2023/08/25 08:01:50;;;;;;;14.98;13.02;;;;;;;22.60;94.55;100695.88;6295801;28;20492;-69
2023/08/25 08:05:11;;;;;;;14.82;13.32;;;;;;;22.76;93.35;100698.13;6315311;28;20229;-70
2023/08/25 08:08:32;;;;;;;15.20;13.70;;;;;;;22.66;93.02;100697.75;6312903;28;20507;-75
2023/08/25 08:11:54;;;;;;;15.35;13.80;;;;;;;22.26;94.21;100698.94;6313508;28;20309;-73
2023/08/25 08:15:15;;;;;;;18.55;14.65;;;;;;;22.31;94.41;100696.41;6304276;28;20229;-69
2023/08/25 08:18:36;;;;;;;16.40;14.65;;;;;;;22.42;93.97;100697.63;6289544;28;20305;-67
2023/08/25 08:21:58;;;;;;;19.27;17.25;;;;;;;22.30;93.52;100713.09;6322635;28;20229;-68
2023/08/25 08:25:20;;;;;;;15.65;14.18;;;;;;;23.05;92.47;100696.72;6327713;28;21099;-69
2023/08/25 08:28:42;;;;;;;15.90;14.20;;;;;;;22.81;91.03;100705.72;6329833;28;20225;-68
2023/08/25 08:32:04;;;;;;;16.83;13.88;;;;;;;23.35;89.73;100708.78;6325795;28;20619;-69
2023/08/25 08:35:25;;;;;;;16.25;14.35;;;;;;;22.99;89.06;100706.66;6322095;28;20229;-68
2023/08/25 08:38:45;;;;;;;14.18;12.32;;;;;;;23.07;89.57;100716.56;6296930;28;20226;-69
2023/08/25 08:42:08;;;;;;;13.88;12.13;;;;;;;23.34;88.53;100720.00;6317748;28;20237;-69
2023/08/25 08:45:35;;;;;;;11.27;9.55;;;;;;;23.59;87.58;100707.13;6289859;28;20233;-68
2023/08/25 08:48:57;;;;;;;13.88;11.15;;;;;;;23.66;86.95;100714.22;6305400;28;20226;-69
2023/08/25 08:52:18;;;;;;;11.75;10.55;;;;;;;22.80;87.42;100721.38;6311889;28;20230;-69
2023/08/25 08:55:39;;;;;;;17.20;11.45;;;;;;;22.69;88.81;100716.56;6314244;28;20270;-68
2023/08/25 08:59:01;;;;;;;20.38;15.98;;;;;;;23.26;88.32;100715.56;6305586;28;20237;-69
2023/08/25 09:02:24;;;;;;;13.05;11.15;;;;;;;22.99;88.99;100714.06;6318213;28;20607;-70
2023/08/25 09:05:48;;;;;;;13.32;11.10;;;;;;;23.21;87.87;100718.16;6318328;28;20238;-69
2023/08/25 09:09:09;;;;;;;14.45;11.18;;;;;;;22.74;89.47;100726.88;6296953;28;20811;-68
2023/08/25 09:12:30;;;;;;;13.55;12.25;;;;;;;22.39;90.45;100725.53;6327739;27;20317;-68
2023/08/25 09:15:53;;;;;;;15.43;13.98;;;;;;;22.85;91.07;100727.06;6313693;27;20236;-70
2023/08/25 09:19:16;;;;;;;14.35;12.25;;;;;;;23.27;89.49;100724.69;6306040;27;21009;-69
2023/08/25 09:22:36;;;;;;;15.48;10.80;;;;;;;23.72;87.61;100743.63;6329101;27;20238;-70
2023/08/25 09:26:03;;;;;;;12.57;11.30;;;;;;;23.39;86.46;100745.78;6329381;27;20325;-69
2023/08/25 09:29:25;;;;;;;16.40;11.40;;;;;;;23.26;87.20;100742.28;6316476;27;20226;-69
2023/08/25 09:32:45;;;;;;;11.50;10.38;;;;;;;22.97;87.69;100750.03;6325706;27;20230;-68
2023/08/25 09:36:08;;;;;;;12.43;11.10;;;;;;;22.94;88.85;100752.41;6330798;27;20249;-69
2023/08/25 09:39:28;;;;;;;13.35;11.05;;;;;;;22.85;88.87;100757.31;6269251;28;20238;-69
2023/08/25 09:42:50;;;;;;;14.40;10.18;;;;;;;22.64;89.80;100754.84;6314614;27;20230;-68
2023/08/25 09:46:11;;;;;;;11.77;10.40;;;;;;;22.75;89.97;100754.19;6308703;27;20234;-69
2023/08/25 09:49:38;;;;;;;10.48;9.15;;;;;;;22.54;90.64;100756.34;6308586;27;20233;-69
2023/08/25 09:53:01;;;;;;;17.27;11.23;;;;;;;22.91;89.98;100759.19;6301374;27;20238;-69
2023/08/25 09:56:22;;;;;;;11.25;10.18;;;;;;;22.85;89.86;100756.44;6320603;28;21318;-69
2023/08/25 09:59:43;;;;;;;13.18;9.88;;;;;;;23.00;89.72;100766.13;6304890;27;20225;-70
2023/08/25 10:03:06;;;;;;;10.85;9.77;;;;;;;23.06;89.30;100775.38;6301778;27;20325;-71
2023/08/25 10:06:30;;;;;;;11.18;8.68;;;;;;;23.20;88.68;100788.00;6324849;27;20613;-71
2023/08/25 10:09:52;;;;;;;10.25;9.25;;;;;;;23.05;88.85;100791.03;6284206;27;20332;-70
2023/08/25 10:13:17;;;;;;;10.95;9.80;;;;;;;22.91;89.48;100785.81;6312039;27;20229;-73
2023/08/25 10:16:41;;;;;;;10.27;8.93;;;;;;;22.94;89.94;100786.25;6315647;27;20257;-69
2023/08/25 10:20:04;;;;;;;13.60;9.90;;;;;;;22.92;89.58;100777.38;6309426;28;20325;-68
2023/08/25 10:23:26;;;;;;;10.45;9.45;;;;;;;22.93;90.03;100776.28;6312685;27;20337;-68
2023/08/25 10:26:49;;;;;;;9.18;8.32;;;;;;;23.33;88.87;100773.34;6320604;27;20498;-68
2023/08/25 10:30:12;;;;;;;13.05;9.02;;;;;;;23.37;87.47;100756.19;6294376;27;20233;-67
2023/08/25 10:33:46;;;;;;;9.65;8.38;;;;;;;23.86;86.45;100765.53;6304384;27;20231;-69
2023/08/25 10:37:09;;;;;;;9.38;8.20;;;;;;;24.04;85.12;100769.22;6311975;27;20229;-68
2023/08/25 10:40:40;;;;;;;11.95;10.27;;;;;;;23.33;86.45;100779.69;6301973;27;20234;-68
2023/08/25 10:44:03;;;;;;;17.92;12.50;;;;;;;23.16;86.05;100780.41;6305268;27;20233;-69
2023/08/25 10:47:24;;;;;;;10.80;9.73;;;;;;;22.93;87.00;100781.78;6305599;27;20229;-68
2023/08/25 10:50:45;;;;;;;16.90;9.23;;;;;;;23.15;87.72;100785.09;6295431;28;20229;-69
2023/08/25 10:54:16;;;;;;;13.13;7.72;;;;;;;22.96;87.85;100786.03;6300753;27;20246;-69
2023/08/25 10:57:43;;;;;;;8.63;7.72;;;;;;;22.91;88.21;100775.66;6303696;28;20237;-68
2023/08/25 11:01:05;;;;;;;14.02;9.15;;;;;;;22.94;87.64;100769.75;6309540;27;20233;-69
2023/08/25 11:04:29;;;;;;;8.80;7.25;;;;;;;23.51;86.85;100773.47;6311829;27;20265;-68
2023/08/25 11:07:50;;;;;;;8.65;7.68;;;;;;;23.50;85.84;100778.09;6280404;27;20233;-69
2023/08/25 11:11:12;;;;;;;9.13;8.25;;;;;;;23.19;85.23;100771.72;6317756;27;20221;-67
2023/08/25 11:14:35;;;;;;;8.50;7.70;;;;;;;23.36;85.59;100773.78;6310612;27;20238;-70
2023/08/25 11:17:58;;;;;;;8.57;6.45;;;;;;;23.70;84.94;100784.31;6306986;27;20230;-70
2023/08/25 11:21:23;;;;;;;9.57;7.88;;;;;;;23.25;85.63;100785.44;6320568;27;22317;-68
2023/08/25 11:24:45;;;;;;;7.43;6.72;;;;;;;23.33;86.32;100781.59;6306227;27;20630;-69
2023/08/25 11:28:06;;;;;;;10.93;8.95;;;;;;;23.43;86.33;100779.19;6312417;27;20249;-69
2023/08/25 11:31:27;;;;;;;8.10;7.35;;;;;;;23.36;86.27;100787.53;6308983;28;20250;-68
2023/08/25 11:34:50;;;;;;;9.05;8.25;;;;;;;23.54;86.12;100779.34;6303406;27;20650;-68
2023/08/25 11:38:13;;;;;;;9.70;8.07;;;;;;;23.29;86.38;100788.59;6294469;27;20250;-67
2023/08/25 11:41:34;;;;;;;10.32;7.82;;;;;;;23.14;87.90;100779.78;6311078;27;20229;-72
2023/08/25 11:44:55;;;;;;;8.82;7.88;;;;;;;23.31;88.21;100786.44;6303038;27;20630;-68
2023/08/25 11:48:16;;;;;;;8.70;7.70;;;;;;;23.27;88.44;100785.22;6298975;28;20225;-70
2023/08/25 11:51:39;;;;;;;8.85;7.95;;;;;;;23.23;88.39;100782.06;6288502;28;20254;-71
2023/08/25 11:55:01;;;;;;;14.73;9.23;;;;;;;22.94;89.60;100790.91;6299625;28;20230;-71
2023/08/25 11:58:29;;;;;;;12.40;9.05;;;;;;;22.66;90.59;100812.34;6298120;28;20322;-70
2023/08/25 12:01:51;;;;;;;11.68;10.32;;;;;;;22.57;92.09;100817.19;6305842;28;20241;-69
2023/08/25 12:05:12;;;;;;;10.65;9.52;;;;;;;22.69;92.59;100809.19;6309259;28;20519;-70
2023/08/25 12:08:39;;;;;;;10.90;9.15;;;;;;;22.83;91.79;100800.66;6296105;28;20231;-71
2023/08/25 12:12:03;;;;;;;9.07;7.18;;;;;;;23.06;91.82;100797.38;6313255;28;20226;-70
2023/08/25 12:15:24;;;;;;;10.25;8.73;;;;;;;23.13;91.09;100795.47;6300336;28;20987;-69
2023/08/25 12:18:51;;;;;;;10.07;8.88;;;;;;;23.50;90.34;100786.38;6308670;28;20316;-70
2023/08/25 12:22:15;;;;;;;9.55;8.27;;;;;;;23.65;90.58;100775.88;6313864;28;20256;-68
2023/08/25 12:25:38;;;;;;;10.80;9.77;;;;;;;23.33;90.66;100774.19;6296650;28;20226;-68
2023/08/25 12:28:59;;;;;;;10.13;8.88;;;;;;;22.92;91.47;100776.53;6294144;28;21873;-70
2023/08/25 12:32:19;;;;;;;9.65;8.70;;;;;;;22.68;92.10;100753.34;6311443;28;20245;-67
2023/08/25 12:35:40;;;;;;;8.05;7.18;;;;;;;22.97;92.23;100755.53;6299908;28;20230;-68
2023/08/25 12:39:01;;;;;;;10.43;8.38;;;;;;;23.16;91.14;100750.13;6299469;28;22071;-67
2023/08/25 12:42:23;;;;;;;8.80;7.68;;;;;;;23.40;90.42;100755.75;6315704;28;20234;-68
2023/08/25 12:45:44;;;;;;;8.90;8.13;;;;;;;23.47;89.66;100762.03;6304468;28;20225;-68
2023/08/25 12:49:05;;;;;;;8.02;7.20;;;;;;;23.39;89.78;100761.44;6313347;27;20217;-67
2023/08/25 12:52:27;;;;;;;7.15;6.53;;;;;;;23.12;89.86;100759.91;6318122;27;20229;-67
2023/08/25 12:55:48;;;;;;;9.48;8.07;;;;;;;23.49;89.63;100751.63;6320433;27;20224;-68
2023/08/25 12:59:11;;;;;;;10.90;8.10;;;;;;;23.14;88.37;100755.88;6307483;27;20221;-66
2023/08/25 13:02:32;;;;;;;7.05;6.45;;;;;;;23.41;88.70;100754.66;6320434;27;20356;-67
2023/08/25 13:05:53;;;;;;;9.73;8.25;;;;;;;23.58;88.88;100775.09;6313054;27;20531;-68
2023/08/25 13:09:16;;;;;;;10.73;6.97;;;;;;;23.68;88.54;100775.41;6304998;27;20558;-68
2023/08/25 13:12:37;;;;;;;10.00;9.02;;;;;;;23.51;88.39;100754.19;6311340;27;20221;-67
2023/08/25 13:16:00;;;;;;;9.25;5.65;;;;;;;24.06;87.37;100744.19;6321606;27;20221;-67
2023/08/25 13:19:21;;;;;;;9.27;8.05;;;;;;;23.78;86.42;100755.66;6317947;27;20242;-67
2023/08/25 13:22:42;;;;;;;7.50;6.68;;;;;;;24.12;85.94;100751.53;6328692;27;21123;-68
2023/08/25 13:26:05;;;;;;;6.25;5.63;;;;;;;24.16;85.39;100761.88;6321087;27;20221;-68
2023/08/25 13:29:26;;;;;;;5.32;4.82;;;;;;;24.30;84.86;100746.88;6311930;27;20241;-68
2023/08/25 13:32:48;;;;;;;8.07;7.25;;;;;;;24.17;84.78;100747.03;6313057;27;20230;-67
2023/08/25 13:36:09;;;;;;;10.10;9.10;;;;;;;23.47;86.10;100750.16;6320646;27;20226;-67
2023/08/25 13:39:33;;;;;;;14.35;10.40;;;;;;;23.22;85.83;100741.84;6292560;27;20257;-67
2023/08/25 13:42:53;;;;;;;12.60;8.63;;;;;;;23.35;87.84;100747.31;6295268;27;20233;-68
2023/08/25 13:46:14;;;;;;;10.30;9.27;;;;;;;23.52;87.67;100736.59;6299320;27;20237;-68
2023/08/25 13:49:37;;;;;;;11.55;9.13;;;;;;;23.56;87.81;100724.91;6293422;27;20226;-67
2023/08/25 13:52:59;;;;;;;13.30;9.52;;;;;;;23.60;88.11;100719.78;6295313;27;20229;-68
2023/08/25 13:56:20;;;;;;;10.02;9.13;;;;;;;23.68;87.78;100703.00;6300252;27;21300;-68
2023/08/25 13:59:41;;;;;;;11.30;10.27;;;;;;;23.58;88.02;100695.25;6283980;27;20242;-68
2023/08/25 14:03:02;;;;;;;11.15;9.55;;;;;;;23.59;88.22;100682.34;6299142;27;20237;-66
2023/08/25 14:06:24;;;;;;;10.50;9.52;;;;;;;23.60;88.40;100673.00;6294790;27;20235;-67
2023/08/25 14:09:46;;;;;;;11.27;9.88;;;;;;;23.62;88.29;100666.19;6310879;27;20229;-66
2023/08/25 14:13:08;;;;;;;9.63;7.95;;;;;;;23.80;88.51;100654.38;6315284;27;20239;-66
2023/08/25 14:16:29;;;;;;;11.88;10.65;;;;;;;23.60;88.75;100642.72;6317692;27;20267;-66
2023/08/25 14:19:50;;;;;;;11.65;8.57;;;;;;;23.84;88.77;100636.34;6304761;27;20265;-66
2023/08/25 14:23:12;;;;;;;11.10;10.05;;;;;;;24.15;87.57;100640.88;6316155;28;20230;-66
2023/08/25 14:26:33;;;;;;;10.10;9.05;;;;;;;24.46;86.35;100637.94;6319222;28;20683;-66
2023/08/25 14:29:54;;;;;;;12.13;10.35;;;;;;;24.35;85.70;100636.81;6305398;27;20243;-67
2023/08/25 14:33:15;;;;;;;10.80;9.65;;;;;;;24.00;86.87;100635.72;6300062;27;20240;-66
2023/08/25 14:36:36;;;;;;;10.73;9.75;;;;;;;24.11;87.33;100625.88;6577664;22;20317;-67
2023/08/25 14:39:58;;;;;;;9.88;8.93;;;;;;;24.36;86.97;100615.59;6277888;28;20510;-66
2023/08/25 14:43:19;;;;;;;11.98;10.70;;;;;;;24.41;86.82;100624.84;6287436;28;20234;-66
2023/08/25 14:46:40;;;;;;;11.23;8.90;;;;;;;24.35;86.78;100638.72;6291120;28;21059;-67
2023/08/25 14:50:01;;;;;;;11.75;9.27;;;;;;;24.25;86.98;100630.16;6283007;28;20615;-66
2023/08/25 14:53:22;;;;;;;14.38;11.52;;;;;;;23.98;87.13;100634.28;6288596;28;20230;-67
2023/08/25 14:56:45;;;;;;;9.20;8.30;;;;;;;24.19;87.93;100626.44;6290874;28;21833;-67
2023/08/25 15:00:08;;;;;;;13.32;7.65;;;;;;;24.49;86.52;100621.78;6274312;28;20753;-67
2023/08/25 15:03:28;;;;;;;9.27;7.53;;;;;;;24.39;87.42;100629.75;6276191;28;20227;-66
2023/08/25 15:06:49;;;;;;;12.55;11.25;;;;;;;24.75;86.14;100620.59;6271283;28;20301;-67
2023/08/25 15:10:11;;;;;;;12.52;11.27;;;;;;;24.82;85.06;100613.06;6261891;28;20239;-67
2023/08/25 15:13:33;;;;;;;10.57;9.55;;;;;;;25.00;85.41;100607.47;6258034;28;20230;-68
2023/08/25 15:16:55;;;;;;;12.25;10.93;;;;;;;24.85;84.97;100598.78;6275668;28;20598;-67
2023/08/25 15:20:15;;;;;;;12.15;11.00;;;;;;;24.57;86.01;100604.91;6261347;28;20505;-69
2023/08/25 15:23:37;;;;;;;12.20;9.57;;;;;;;24.85;85.42;100600.69;6246999;28;20869;-67
2023/08/25 15:27:00;;;;;;;11.13;10.02;;;;;;;25.21;84.28;100597.78;6271635;28;20253;-67
2023/08/25 15:30:24;;;;;;;8.05;7.25;;;;;;;25.24;83.47;100586.28;6255893;28;20230;-68